Flight Track Log - Related Links

Times and Time Zones

All times are in EDT time to prevent confusion due to time zone crossing. See the SKW6492 flight status page for this flight to view local times or setup timezone preferences in your user account.

Time Position Orientation Groundspeed Altitude Reporting Facility
EDT Latitude Longitude Course Direction KTS MPH feet Rate Location/Type
Sat 09:45:47 PM 39.9167 -104.6833 348° North 173 199 6,400  Level Denver TRACON
Sat 09:46:47 PM 39.9667 -104.6667 14° North 238 274 7,800 1,667 Climbing Denver TRACON
Sat 09:47:53 PM 40.0500 -104.6667 360° North 279 321 9,900 2,000 Climbing Denver TRACON
Sat 09:48:00 PM 40.1031 -104.8802 347° North  Level Estimated
Sat 09:48:47 PM 40.1167 -104.6833 349° North 288 331 11,800  Level Denver TRACON
Sat 09:49:00 PM 40.1835 -104.9495 346° North  Level Estimated
Sat 09:49:47 PM 40.2000 -104.7000 351° North 271 312 13,500  Level Denver TRACON
Sat 09:50:00 PM 40.2788 -104.9307 North  Level FlightAware Approximate
Sat 09:50:47 PM 40.2833 -104.7167 351° North 354 407 15,500  Level Denver TRACON
Sat 09:51:00 PM 40.3585 -105.0016 348° North  Level Estimated
Sat 09:51:47 PM 40.3833 -104.7500 346° North 311 358 17,500  Level Denver TRACON
Sat 09:53:14 PM 40.5039 -104.7778 350° North 326 375 19,900 1,541 Climbing Denver Center
Sat 09:54:15 PM 40.5919 -104.8019 348° North 325 374 21,300 1,377 Climbing Denver Center
Sat 09:55:16 PM 40.6900 -104.8275 349° North 337 388 22,700 1,230 Climbing Denver Center
Sat 09:56:17 PM 40.7622 -104.8933 325° Northwest 330 380 23,800 1,082 Climbing Denver Center
Sat 09:57:18 PM 40.8372 -104.9700 322° Northwest 337 388 24,900 885 Climbing Denver Center
Sat 09:58:19 PM 40.9156 -105.0486 323° Northwest 350 403 25,600 836 Climbing Denver Center
Sat 09:59:20 PM 40.9936 -105.1292 322° Northwest 355 409 26,600 885 Climbing Denver Center
Sat 10:00:21 PM 41.0769 -105.2144 322° Northwest 357 411 27,400 787 Climbing Denver Center
Sat 10:01:22 PM 41.1533 -105.2950 322° Northwest 363 418 28,200 836 Climbing Denver Center
Sat 10:02:23 PM 41.2442 -105.3900 322° Northwest 370 426 29,100 787 Climbing Denver Center
Sat 10:03:24 PM 41.3219 -105.4706 322° Northwest 370 426 29,800 590 Climbing Denver Center
Sat 10:04:25 PM 41.3997 -105.5483 323° Northwest 367 422 30,300 541 Climbing Denver Center
Sat 10:05:26 PM 41.4908 -105.6439 322° Northwest 371 427 30,900 541 Climbing Denver Center
Sat 10:06:27 PM 41.5689 -105.7261 322° Northwest 373 429 31,400 545 Climbing Denver Center
Sat 10:07:27 PM 41.6456 -105.8078 321° Northwest 370 426 32,000 298 Climbing Denver Center
Sat 10:08:28 PM 41.7372 -105.9028 322° Northwest 372 428 32,000  Level Denver Center
Sat 10:09:29 PM 41.8158 -105.9853 322° Northwest 373 429 32,000  Level Denver Center
Sat 10:10:30 PM 41.8925 -106.0678 321° Northwest 371 427 32,000  Level Denver Center
Sat 10:11:31 PM 41.9839 -106.1639 322° Northwest 371 427 32,000  Level Denver Center
Sat 10:12:32 PM 42.0594 -106.2467 321° Northwest 367 422 32,000  Level Denver Center
Sat 10:13:33 PM 42.1344 -106.3281 321° Northwest 362 417 32,000  Level Denver Center
Sat 10:14:34 PM 42.2258 -106.4239 322° Northwest 370 426 32,000  Level Denver Center
Sat 10:15:34 PM 42.3103 -106.5150 321° Northwest 371 427 32,000  Level Denver Center
Sat 10:16:35 PM 42.3797 -106.5914 321° Northwest 371 427 32,000  Level Denver Center
Sat 10:17:36 PM 42.4697 -106.6892 321° Northwest 371 427 32,000  Level Denver Center
Sat 10:18:37 PM 42.5456 -106.7717 321° Northwest 367 422 32,000  Level Denver Center
Sat 10:19:38 PM 42.6231 -106.8558 321° Northwest 370 426 32,000  Level Denver Center
Sat 10:20:39 PM 42.7111 -106.9542 321° Northwest 368 423 32,000  Level Denver Center
Sat 10:21:40 PM 42.7869 -107.0381 321° Northwest 368 423 32,000  Level Denver Center
Sat 10:22:40 PM 42.8644 -107.1225 321° Northwest 371 427 32,000  Level Denver Center
Sat 10:23:35 PM 42.9425 -107.2108 320° Northwest 371 427 32,000  Level Salt Lake Center
Sat 10:24:36 PM 43.0222 -107.3000 321° Northwest 372 428 32,000  Level Salt Lake Center
Sat 10:25:37 PM 43.1036 -107.3886 322° Northwest 374 430 32,000  Level Salt Lake Center
Sat 10:26:38 PM 43.1842 -107.4806 320° Northwest 377 434 32,000  Level Salt Lake Center
Sat 10:27:39 PM 43.2656 -107.5703 321° Northwest 375 432 32,000  Level Salt Lake Center
Sat 10:28:40 PM 43.3472 -107.6633 320° Northwest 379 436 32,000  Level Salt Lake Center
Sat 10:29:41 PM 43.4289 -107.7558 321° Northwest 382 440 32,000 -344 Level Salt Lake Center
Sat 10:30:42 PM 43.5106 -107.8472 321° Northwest 380 437 31,300 -1,475 Descending Salt Lake Center
Sat 10:31:43 PM 43.6172 -107.9708 320° Northwest 413 475 29,000 -2,115 Descending Salt Lake Center
Sat 10:32:44 PM 43.7039 -108.0703 320° Northwest 408 470 27,000 -2,115 Descending Salt Lake Center
Sat 10:33:45 PM 43.7850 -108.1644 320° Northwest 386 444 24,700 -2,311 Descending Salt Lake Center
Sat 10:34:46 PM 43.8625 -108.2519 321° Northwest 364 419 22,300 -2,293 Descending Salt Lake Center
Sat 10:35:48 PM 43.9339 -108.3361 320° Northwest 343 395 20,000 -2,244 Descending Salt Lake Center
Sat 10:36:49 PM 44.0003 -108.4147 320° Northwest 329 379 17,700 -2,262 Descending Salt Lake Center
Sat 10:37:50 PM 44.0644 -108.4886 320° Northwest 317 365 15,400 -2,262 Descending Salt Lake Center
Sat 10:38:51 PM 44.1242 -108.5586 320° Northwest 302 348 13,100 -1,672 Descending Salt Lake Center
Sat 10:39:52 PM 44.1814 -108.6258 320° Northwest 288 331 12,000 -541 Descending Salt Lake Center
Sat 10:40:53 PM 44.2364 -108.6881 321° Northwest 274 315 12,000 -197 Level Salt Lake Center
Sat 10:41:54 PM 44.2856 -108.7467 320° Northwest 257 296 11,600 -1,230 Descending Salt Lake Center
Sat 10:42:55 PM 44.3394 -108.7828 334° Northwest 238 274 9,500 -1,475 Descending Salt Lake Center
Sat 10:43:56 PM 44.3997 -108.8089 343° North 231 266 8,600 -738 Descending Salt Lake Center
Sat 10:44:57 PM 44.4506 -108.8319 342° North 217 250 8,000 -246 Descending Salt Lake Center
Sat 10:45:58 PM 44.5006 -108.8636 336° Northwest 188 216 8,100  Climbing Salt Lake Center
Sat 10:46:59 PM 44.5406 -108.8919 333° Northwest 175 201 8,000 -836 Descending Salt Lake Center
Sat 10:48:00 PM 44.5586 -108.9353 300° West 152 175 6,400 -984 Descending Salt Lake Center
Sat 10:49:01 PM 44.5528 -108.9811 260° West 149 171 6,000 -393 Descending Salt Lake Center

Login

Don't have an account? Register now (free) for customized features, flight alerts, and more!